createdAt,value
2022-11-06T00:02:20.469Z,20.60
2022-11-06T00:04:49.974Z,18.80
2022-11-06T00:07:18.828Z,17.70
2022-11-06T00:09:47.959Z,17.50
2022-11-06T00:12:16.714Z,18.30
2022-11-06T00:14:45.492Z,19.20
2022-11-06T00:17:14.255Z,18.10
2022-11-06T00:19:43.055Z,17.70
2022-11-06T00:22:12.241Z,18.30
2022-11-06T00:24:41.032Z,17.00
2022-11-06T00:27:09.792Z,24.20
2022-11-06T00:29:38.595Z,25.10
2022-11-06T00:32:07.782Z,17.80
2022-11-06T00:34:36.741Z,10.20
2022-11-06T00:37:05.727Z,16.30
2022-11-06T00:39:34.529Z,17.20
2022-11-06T00:42:03.423Z,17.10
2022-11-06T00:44:32.282Z,15.70
2022-11-06T00:47:01.345Z,18.30
2022-11-06T00:49:30.097Z,21.80
2022-11-06T00:51:59.337Z,14.40
2022-11-06T00:54:28.150Z,20.60
2022-11-06T00:56:57.372Z,16.80
2022-11-06T00:59:26.178Z,14.20
2022-11-06T01:01:55.097Z,21.10
2022-11-06T01:04:24.377Z,20.50
2022-11-06T01:06:55.806Z,18.70
2022-11-06T01:09:26.369Z,17.10
2022-11-06T01:12:12.960Z,20.80
2022-11-06T01:14:43.152Z,17.20
2022-11-06T01:17:12.474Z,19.90
2022-11-06T01:19:41.445Z,13.80
2022-11-06T01:22:10.460Z,15.30
2022-11-06T01:24:39.416Z,19.30
2022-11-06T01:29:57.396Z,17.30
2022-11-06T01:32:26.155Z,22.50
2022-11-06T01:34:55.292Z,17.60
2022-11-06T01:37:24.221Z,20.70
2022-11-06T01:39:53.116Z,23.50
2022-11-06T01:42:22.068Z,20.20
2022-11-06T01:45:09.742Z,16.80
2022-11-06T01:47:38.633Z,18.50
2022-11-06T01:50:12.850Z,16.90
2022-11-06T01:52:42.861Z,3.50
2022-11-06T01:55:19.651Z,14.80
2022-11-06T01:57:48.804Z,24.10
2022-11-06T02:00:18.044Z,20.70
2022-11-06T02:02:47.083Z,15.00
2022-11-06T02:05:16.475Z,19.30
2022-11-06T02:07:45.852Z,15.90
2022-11-06T02:10:14.695Z,15.20
2022-11-06T02:13:02.605Z,18.90
2022-11-06T02:15:46.817Z,18.00
2022-11-06T02:18:21.506Z,14.50
2022-11-06T02:21:08.997Z,16.10
2022-11-06T02:23:40.955Z,15.40
2022-11-06T02:26:15.569Z,16.30
2022-11-06T02:28:56.034Z,20.70
2022-11-06T02:31:27.029Z,19.60
2022-11-06T02:33:58.619Z,17.00
2022-11-06T02:36:30.279Z,15.90
2022-11-06T02:39:01.884Z,13.10
2022-11-06T02:41:32.383Z,14.70
2022-11-06T02:44:03.049Z,15.30
2022-11-06T02:46:36.289Z,18.30
2022-11-06T02:49:07.943Z,18.70
2022-11-06T02:51:38.878Z,16.90
2022-11-06T02:54:09.558Z,18.90
2022-11-06T02:56:41.235Z,15.90
2022-11-06T02:59:12.515Z,22.20
2022-11-06T03:02:00.487Z,15.30
2022-11-06T03:04:35.400Z,21.30
2022-11-06T03:07:08.591Z,18.80
2022-11-06T03:09:37.397Z,21.60
2022-11-06T03:12:12.524Z,17.70
2022-11-06T03:14:50.640Z,14.50
2022-11-06T03:17:29.070Z,25.20
2022-11-06T03:20:16.379Z,26.10
2022-11-06T03:22:54.478Z,17.20
2022-11-06T03:25:32.923Z,15.70
2022-11-06T03:28:01.690Z,21.40
2022-11-06T03:30:32.025Z,17.20
2022-11-06T03:33:13.895Z,16.70
2022-11-06T03:35:54.966Z,16.10
2022-11-06T03:38:27.370Z,21.90
2022-11-06T03:41:03.438Z,11.10
2022-11-06T03:43:34.987Z,16.40
2022-11-06T03:46:06.100Z,20.30
2022-11-06T03:48:38.510Z,16.70
2022-11-06T03:51:13.894Z,10.60
2022-11-06T03:53:49.639Z,19.20
2022-11-06T03:56:26.455Z,17.10
2022-11-06T03:59:01.183Z,15.50
2022-11-06T04:01:35.345Z,18.50
2022-11-06T04:04:11.856Z,16.70
2022-11-06T04:06:42.500Z,17.20
2022-11-06T04:09:31.927Z,17.20
2022-11-06T04:12:20.591Z,14.30
2022-11-06T04:15:00.796Z,13.80
2022-11-06T04:17:31.454Z,20.30
2022-11-06T04:20:05.518Z,17.10
2022-11-06T04:22:48.301Z,17.00
2022-11-06T04:25:47.518Z,17.00
2022-11-06T04:28:28.473Z,15.80
2022-11-06T04:30:57.200Z,17.80
2022-11-06T04:33:28.621Z,18.00
2022-11-06T04:36:06.557Z,16.90
2022-11-06T04:38:35.313Z,14.50
2022-11-06T04:41:04.204Z,17.00
2022-11-06T04:43:36.060Z,25.20
2022-11-06T04:46:05.412Z,13.50
2022-11-06T04:48:35.193Z,19.00
2022-11-06T04:51:06.114Z,19.30
2022-11-06T04:53:35.687Z,20.60
2022-11-06T04:56:11.919Z,19.70
2022-11-06T04:58:40.676Z,16.80
2022-11-06T05:01:09.915Z,23.40
2022-11-06T05:03:38.727Z,22.50
2022-11-06T05:06:08.474Z,16.10
2022-11-06T05:08:37.295Z,20.80
2022-11-06T05:11:06.286Z,20.80
2022-11-06T05:13:35.078Z,21.20
2022-11-06T05:16:04.585Z,22.70
2022-11-06T05:18:33.543Z,26.00
2022-11-06T05:21:21.849Z,23.50
2022-11-06T05:23:50.666Z,19.60
2022-11-06T05:26:19.687Z,20.50
2022-11-06T05:28:48.570Z,17.80
2022-11-06T05:31:17.332Z,27.80
2022-11-06T05:33:46.074Z,28.70
2022-11-06T05:36:15.419Z,21.00
2022-11-06T05:38:44.221Z,18.10
2022-11-06T05:41:12.998Z,21.50
2022-11-06T05:43:41.851Z,22.50
2022-11-06T05:46:35.744Z,24.20
2022-11-06T05:49:19.333Z,20.50
2022-11-06T05:51:51.332Z,22.80
2022-11-06T05:54:20.414Z,21.30
2022-11-06T05:56:53.004Z,21.10
2022-11-06T05:59:25.676Z,18.70
2022-11-06T06:04:41.317Z,61.80
2022-11-06T06:07:25.298Z,61.30
2022-11-06T06:09:54.428Z,34.70
2022-11-06T06:12:27.227Z,27.90
2022-11-06T06:15:05.111Z,30.10
2022-11-06T06:17:43.355Z,19.00
2022-11-06T06:20:14.538Z,25.40
2022-11-06T06:22:43.751Z,19.40
2022-11-06T06:25:22.340Z,17.70
2022-11-06T06:27:52.443Z,18.10
2022-11-06T06:30:22.844Z,16.50
2022-11-06T06:32:51.827Z,19.40
2022-11-06T06:35:20.742Z,13.70
2022-11-06T06:37:53.532Z,16.90
2022-11-06T06:40:23.201Z,16.10
2022-11-06T06:42:52.119Z,12.80
2022-11-06T06:45:21.089Z,13.10
2022-11-06T06:47:49.915Z,14.30
2022-11-06T06:50:18.778Z,13.70
2022-11-06T06:52:47.834Z,12.70
2022-11-06T06:55:16.659Z,13.10
2022-11-06T06:57:45.448Z,14.30
2022-11-06T07:00:14.376Z,13.30
2022-11-06T07:02:43.133Z,14.40
2022-11-06T07:05:11.927Z,11.40
2022-11-06T07:07:40.680Z,11.10
2022-11-06T07:10:09.511Z,11.60
2022-11-06T07:12:38.524Z,10.80
2022-11-06T07:15:07.757Z,17.20
2022-11-06T07:17:36.586Z,14.20
2022-11-06T07:20:05.949Z,12.30
2022-11-06T07:22:37.251Z,11.80
2022-11-06T07:25:06.744Z,15.30
2022-11-06T07:27:35.619Z,10.30
2022-11-06T07:30:04.739Z,9.90
2022-11-06T07:32:33.581Z,10.60
2022-11-06T07:35:02.372Z,12.70
2022-11-06T07:37:31.171Z,13.10
2022-11-06T07:39:59.982Z,13.50
2022-11-06T07:42:29.157Z,16.10
2022-11-06T07:44:58.036Z,9.80
2022-11-06T07:47:27.883Z,13.00
2022-11-06T07:49:56.689Z,12.30
2022-11-06T07:52:25.531Z,11.00
2022-11-06T07:54:54.664Z,12.20
2022-11-06T07:57:23.865Z,12.00
2022-11-06T07:59:52.657Z,12.60
2022-11-06T08:02:21.571Z,10.90
2022-11-06T08:04:50.401Z,10.30
2022-11-06T08:07:19.165Z,11.00
2022-11-06T08:09:47.895Z,11.20
2022-11-06T08:12:16.684Z,12.50
2022-11-06T08:14:45.441Z,16.00
2022-11-06T08:17:14.383Z,12.80
2022-11-06T08:19:43.144Z,12.00
2022-11-06T08:22:11.919Z,11.70
2022-11-06T08:24:40.732Z,12.50
2022-11-06T08:27:09.575Z,16.10
2022-11-06T08:29:41.551Z,10.90
2022-11-06T08:32:10.754Z,10.10
2022-11-06T08:34:39.613Z,14.90
2022-11-06T08:37:09.575Z,13.30
2022-11-06T08:39:38.463Z,10.80
2022-11-06T08:42:07.307Z,13.20
2022-11-06T08:44:36.062Z,12.90
2022-11-06T08:47:04.969Z,14.60
2022-11-06T08:49:38.860Z,14.70
2022-11-06T08:52:17.998Z,16.20
2022-11-06T08:57:19.142Z,12.40
2022-11-06T08:59:48.144Z,11.00
2022-11-06T09:02:19.435Z,14.00
2022-11-06T09:04:48.588Z,11.80
2022-11-06T09:07:21.137Z,11.80
2022-11-06T09:09:50.163Z,12.20
2022-11-06T09:12:19.050Z,14.40
2022-11-06T09:14:48.036Z,15.30
2022-11-06T09:17:17.396Z,12.30
2022-11-06T09:19:46.472Z,11.70
2022-11-06T09:22:15.278Z,11.40
2022-11-06T09:25:02.463Z,12.00
2022-11-06T09:27:32.940Z,11.40
2022-11-06T09:30:01.769Z,14.10
2022-11-06T09:32:30.758Z,11.60
2022-11-06T09:35:00.467Z,12.00
2022-11-06T09:37:32.448Z,14.30
2022-11-06T09:40:06.111Z,14.10
2022-11-06T09:42:47.515Z,12.50
2022-11-06T09:45:18.006Z,9.10
2022-11-06T09:47:51.063Z,9.60
2022-11-06T09:50:22.308Z,9.80
2022-11-06T09:52:54.961Z,11.20
2022-11-06T09:55:30.546Z,9.50
2022-11-06T10:01:00.979Z,11.30
2022-11-06T10:03:57.840Z,8.60
2022-11-06T10:06:41.496Z,10.00
2022-11-06T10:09:17.793Z,13.00
2022-11-06T10:12:06.611Z,8.70
2022-11-06T10:14:59.121Z,10.20
2022-11-06T10:17:28.220Z,11.80
2022-11-06T10:20:04.578Z,9.10
2022-11-06T10:22:36.440Z,9.50
2022-11-06T10:25:22.396Z,10.80
2022-11-06T10:27:54.332Z,10.40
2022-11-06T10:30:23.666Z,10.00
2022-11-06T10:33:11.455Z,7.30
2022-11-06T10:35:42.362Z,8.50
2022-11-06T10:38:15.451Z,11.10
2022-11-06T10:40:46.597Z,11.60
2022-11-06T10:43:21.760Z,8.10
2022-11-06T10:45:57.031Z,8.60
2022-11-06T10:48:31.615Z,8.50
2022-11-06T10:53:54.400Z,8.20
2022-11-06T10:56:36.137Z,9.80
2022-11-06T10:59:06.708Z,8.40
2022-11-06T11:01:36.861Z,8.50
2022-11-06T11:04:06.611Z,6.80
2022-11-06T11:06:40.698Z,12.30
2022-11-06T11:09:27.974Z,6.50
2022-11-06T11:11:57.707Z,7.00
2022-11-06T11:14:27.793Z,7.10
2022-11-06T11:17:00.271Z,9.60
2022-11-06T11:21:59.291Z,10.30
2022-11-06T11:24:28.636Z,6.90
2022-11-06T11:27:01.898Z,10.40
2022-11-06T11:29:32.157Z,6.70
2022-11-06T11:32:02.789Z,9.20
2022-11-06T11:34:37.724Z,7.80
2022-11-06T11:37:08.238Z,11.50
2022-11-06T11:39:49.065Z,8.30
2022-11-06T11:42:24.311Z,6.70
2022-11-06T11:45:12.045Z,8.80
2022-11-06T11:47:42.692Z,6.20
2022-11-06T11:50:31.739Z,8.50
2022-11-06T11:53:10.161Z,8.10
2022-11-06T11:55:41.683Z,7.80
2022-11-06T11:58:21.404Z,10.30
2022-11-06T12:00:54.766Z,8.20
2022-11-06T12:03:25.147Z,10.30
2022-11-06T12:05:54.833Z,6.90
2022-11-06T12:08:25.573Z,7.30
2022-11-06T12:11:01.068Z,7.70
2022-11-06T12:13:29.957Z,9.90
2022-11-06T12:16:01.055Z,9.70
2022-11-06T12:18:32.902Z,9.00
2022-11-06T12:21:03.998Z,5.80
2022-11-06T12:23:47.817Z,8.70
2022-11-06T12:26:28.815Z,6.70
2022-11-06T12:29:05.949Z,6.70
2022-11-06T12:31:55.574Z,8.60
2022-11-06T12:34:32.285Z,7.20
2022-11-06T12:37:06.065Z,7.00
2022-11-06T12:39:37.717Z,8.60
2022-11-06T12:42:07.291Z,8.20
2022-11-06T12:44:36.293Z,7.50
2022-11-06T12:47:05.535Z,7.70
2022-11-06T12:49:37.691Z,11.50
2022-11-06T12:52:15.846Z,13.60
2022-11-06T12:55:03.238Z,8.50
2022-11-06T12:57:49.520Z,10.50
2022-11-06T13:00:26.035Z,6.60
2022-11-06T13:03:07.689Z,6.70
2022-11-06T13:05:55.325Z,7.60
2022-11-06T13:08:43.091Z,10.90
2022-11-06T13:11:21.357Z,7.60
2022-11-06T13:13:56.430Z,9.60
2022-11-06T13:16:31.480Z,10.50
2022-11-06T13:19:20.124Z,8.10
2022-11-06T13:21:51.713Z,6.90
2022-11-06T13:24:25.982Z,6.70
2022-11-06T13:27:00.377Z,10.10
2022-11-06T13:29:30.091Z,8.70
2022-11-06T13:32:01.726Z,8.50
2022-11-06T13:34:34.489Z,10.30
2022-11-06T13:37:04.243Z,8.80
2022-11-06T13:39:36.683Z,11.50
2022-11-06T13:42:10.014Z,10.40
2022-11-06T13:44:39.024Z,10.80
2022-11-06T13:47:12.344Z,12.30
2022-11-06T13:49:47.171Z,9.80
2022-11-06T13:52:16.584Z,9.80
2022-11-06T13:54:50.031Z,11.50
2022-11-06T13:57:18.888Z,10.40
2022-11-06T13:59:53.734Z,11.00
2022-11-06T14:02:29.822Z,12.40
2022-11-06T14:05:18.279Z,9.20
2022-11-06T14:07:48.614Z,13.10
2022-11-06T14:10:21.103Z,8.80
2022-11-06T14:12:50.677Z,10.20
2022-11-06T14:15:19.624Z,11.50
2022-11-06T14:17:56.761Z,11.20
2022-11-06T14:20:34.919Z,11.90
2022-11-06T14:23:22.486Z,10.20
2022-11-06T14:25:59.685Z,10.80
2022-11-06T14:28:30.550Z,12.00
2022-11-06T14:31:23.748Z,12.90
2022-11-06T14:33:52.498Z,10.80
2022-11-06T14:36:26.093Z,12.60
2022-11-06T14:38:55.269Z,8.80
2022-11-06T14:41:36.135Z,12.40
2022-11-06T14:44:06.788Z,12.50
2022-11-06T14:46:36.296Z,12.80
2022-11-06T14:49:08.641Z,17.60
2022-11-06T14:51:37.824Z,11.20
2022-11-06T14:54:17.967Z,9.20
2022-11-06T14:56:52.206Z,13.30
2022-11-06T14:59:38.672Z,12.60
2022-11-06T15:02:15.403Z,11.00
2022-11-06T15:04:56.453Z,13.20
2022-11-06T15:10:42.174Z,17.20
2022-11-06T15:13:17.428Z,8.60
2022-11-06T15:15:49.429Z,12.50
2022-11-06T15:18:22.839Z,12.10
2022-11-06T15:20:56.769Z,10.90
2022-11-06T15:23:37.800Z,11.60
2022-11-06T15:26:14.945Z,9.20
2022-11-06T15:28:46.896Z,8.90
2022-11-06T15:31:21.421Z,12.50
2022-11-06T15:33:55.971Z,13.50
2022-11-06T15:36:25.525Z,11.20
2022-11-06T15:38:54.355Z,13.40
2022-11-06T15:41:25.176Z,12.00
2022-11-06T15:43:55.116Z,10.40
2022-11-06T15:46:28.385Z,10.30
2022-11-06T15:49:13.058Z,11.40
2022-11-06T15:51:49.573Z,11.30
2022-11-06T15:54:36.032Z,14.30
2022-11-06T15:57:13.956Z,13.90
2022-11-06T15:59:43.803Z,14.00
2022-11-06T16:02:15.154Z,10.50
2022-11-06T16:04:44.621Z,11.50
2022-11-06T16:07:13.860Z,12.00
2022-11-06T16:09:43.264Z,12.00
2022-11-06T16:12:17.168Z,9.70
2022-11-06T16:14:46.631Z,13.40
2022-11-06T16:17:18.182Z,22.60
2022-11-06T16:19:47.785Z,32.90
2022-11-06T16:22:17.938Z,39.60
2022-11-06T16:24:49.360Z,52.40
2022-11-06T16:27:18.497Z,116.60
2022-11-06T16:29:49.189Z,58.90
2022-11-06T16:32:19.788Z,47.10
2022-11-06T16:34:48.786Z,20.10
2022-11-06T16:37:17.591Z,19.90
2022-11-06T16:39:49.942Z,15.00
2022-11-06T16:42:22.977Z,15.80
2022-11-06T16:44:59.810Z,12.80
2022-11-06T16:47:28.701Z,12.90
2022-11-06T16:49:58.763Z,17.60
2022-11-06T16:52:28.041Z,16.40
2022-11-06T16:54:59.224Z,15.50
2022-11-06T16:57:42.599Z,13.00
2022-11-06T17:00:11.989Z,15.00
2022-11-06T17:02:46.830Z,26.40
2022-11-06T17:05:19.221Z,41.50
2022-11-06T17:08:18.422Z,30.90
2022-11-06T17:10:49.181Z,27.00
2022-11-06T17:13:21.827Z,19.90
2022-11-06T17:15:55.214Z,17.00
2022-11-06T17:18:25.963Z,14.80
2022-11-06T17:20:58.040Z,14.50
2022-11-06T17:23:30.406Z,15.30
2022-11-06T17:26:01.928Z,17.80
2022-11-06T17:28:31.419Z,13.60
2022-11-06T17:31:02.152Z,14.20
2022-11-06T17:33:31.193Z,16.80
2022-11-06T17:36:00.345Z,23.20
2022-11-06T17:38:29.143Z,28.70
2022-11-06T17:40:58.035Z,27.30
2022-11-06T17:43:29.912Z,31.00
2022-11-06T17:45:58.947Z,27.20
2022-11-06T17:48:27.849Z,21.30
2022-11-06T17:51:15.477Z,21.20
2022-11-06T17:53:44.431Z,25.40
2022-11-06T17:56:13.360Z,26.20
2022-11-06T17:58:42.483Z,22.40
2022-11-06T18:01:11.429Z,27.90
2022-11-06T18:03:44.492Z,27.90
2022-11-06T18:06:14.457Z,29.80
2022-11-06T18:08:43.842Z,22.40
2022-11-06T18:11:13.168Z,27.60
2022-11-06T18:13:41.985Z,23.70
2022-11-06T18:16:15.507Z,27.70
2022-11-06T18:18:44.548Z,23.70
2022-11-06T18:21:13.404Z,31.80
2022-11-06T18:23:42.204Z,23.20
2022-11-06T18:26:11.814Z,25.30
2022-11-06T18:28:41.807Z,26.20
2022-11-06T18:31:10.847Z,27.10
2022-11-06T18:33:42.432Z,25.80
2022-11-06T18:36:13.430Z,33.00
2022-11-06T18:38:42.800Z,26.00
2022-11-06T18:41:16.818Z,24.40
2022-11-06T18:43:46.256Z,35.90
2022-11-06T18:46:16.407Z,41.60
2022-11-06T18:48:45.592Z,61.50
2022-11-06T18:51:27.497Z,63.40
2022-11-06T18:54:05.993Z,70.20
2022-11-06T18:56:37.432Z,48.90
2022-11-06T18:59:07.134Z,45.20
2022-11-06T19:01:36.663Z,49.70
2022-11-06T19:04:05.824Z,49.80
2022-11-06T19:06:34.870Z,60.40
2022-11-06T19:09:03.931Z,54.80
2022-11-06T19:11:33.358Z,48.90
2022-11-06T19:14:02.613Z,50.80
2022-11-06T19:16:31.440Z,47.70
2022-11-06T19:21:35.934Z,56.50
2022-11-06T19:24:06.680Z,69.40
2022-11-06T19:26:36.684Z,73.10
2022-11-06T19:29:08.138Z,59.40
2022-11-06T19:31:40.135Z,51.00
2022-11-06T19:34:12.525Z,58.50
2022-11-06T19:36:44.816Z,54.50
2022-11-06T19:39:15.162Z,43.80
2022-11-06T19:41:46.223Z,38.10
2022-11-06T19:44:16.687Z,43.60
2022-11-06T19:46:47.836Z,44.10
2022-11-06T19:49:20.232Z,54.60
2022-11-06T19:51:49.138Z,53.10
2022-11-06T19:54:21.127Z,62.20
2022-11-06T19:57:27.090Z,55.90
2022-11-06T19:59:39.331Z,58.80
2022-11-06T20:02:09.651Z,45.90
2022-11-06T20:04:39.151Z,53.70
2022-11-06T20:07:09.148Z,41.50
2022-11-06T20:09:38.020Z,37.40
2022-11-06T20:12:07.160Z,40.00
2022-11-06T20:14:36.061Z,42.10
2022-11-06T20:17:04.954Z,44.30
2022-11-06T20:19:37.777Z,50.60
2022-11-06T20:22:07.187Z,57.90
2022-11-06T20:24:37.966Z,50.70
2022-11-06T20:27:11.200Z,37.20
2022-11-06T20:29:40.452Z,36.80
2022-11-06T20:32:10.050Z,30.40
2022-11-06T20:34:39.965Z,36.20
2022-11-06T20:37:08.980Z,28.40
2022-11-06T20:39:37.816Z,34.70
2022-11-06T20:42:07.149Z,36.30
2022-11-06T20:44:37.376Z,35.10
2022-11-06T20:47:06.692Z,34.00
2022-11-06T20:49:37.159Z,34.90
2022-11-06T20:52:15.013Z,33.50
2022-11-06T20:54:47.584Z,34.90
2022-11-06T20:57:16.669Z,31.60
2022-11-06T20:59:45.588Z,32.10
2022-11-06T21:02:14.790Z,31.10
2022-11-06T21:04:44.436Z,31.80
2022-11-06T21:07:13.542Z,32.70
2022-11-06T21:09:42.349Z,34.50
2022-11-06T21:12:11.893Z,31.60
2022-11-06T21:14:40.722Z,33.30
2022-11-06T21:17:09.508Z,34.50
2022-11-06T21:19:38.544Z,32.10
2022-11-06T21:22:07.393Z,30.10
2022-11-06T21:24:36.173Z,32.80
2022-11-06T21:27:04.982Z,32.80
2022-11-06T21:29:33.860Z,33.00
2022-11-06T21:32:02.639Z,31.80
2022-11-06T21:34:31.447Z,34.50
2022-11-06T21:37:02.823Z,36.70
2022-11-06T21:39:36.230Z,33.20
2022-11-06T21:42:05.684Z,32.70
2022-11-06T21:44:34.525Z,32.20
2022-11-06T21:47:03.335Z,33.70
2022-11-06T21:49:32.187Z,30.90
2022-11-06T21:52:25.110Z,28.80
2022-11-06T21:55:15.805Z,31.90
2022-11-06T21:57:44.626Z,28.70
2022-11-06T22:00:14.508Z,34.70
2022-11-06T22:02:43.640Z,34.60
2022-11-06T22:05:12.625Z,37.40
2022-11-06T22:07:41.406Z,35.60
2022-11-06T22:10:10.252Z,36.80
2022-11-06T22:12:39.140Z,36.00
2022-11-06T22:15:08.350Z,34.70
2022-11-06T22:17:37.119Z,29.40
2022-11-06T22:20:06.232Z,37.40
2022-11-06T22:22:35.000Z,34.30
2022-11-06T22:25:05.331Z,32.40
2022-11-06T22:27:39.670Z,39.60
2022-11-06T22:30:09.959Z,31.70
2022-11-06T22:32:38.734Z,30.30
2022-11-06T22:35:07.734Z,33.50
2022-11-06T22:37:36.512Z,28.50
2022-11-06T22:40:05.600Z,25.80
2022-11-06T22:42:34.804Z,23.80
2022-11-06T22:45:03.985Z,28.70
2022-11-06T22:47:32.990Z,29.50
2022-11-06T22:50:01.807Z,28.30
2022-11-06T22:52:30.629Z,25.20
2022-11-06T22:54:59.386Z,28.40
2022-11-06T22:57:28.510Z,26.80
2022-11-06T22:59:57.307Z,29.30
2022-11-06T23:02:26.506Z,25.50
2022-11-06T23:04:55.444Z,23.20
2022-11-06T23:07:24.207Z,28.40
2022-11-06T23:09:53.353Z,31.00
2022-11-06T23:12:22.154Z,25.60
2022-11-06T23:14:50.910Z,26.50
2022-11-06T23:17:19.686Z,25.80
2022-11-06T23:19:48.426Z,31.20
2022-11-06T23:22:35.913Z,26.40
2022-11-06T23:25:05.629Z,30.50
2022-11-06T23:27:34.805Z,26.80
2022-11-06T23:30:04.107Z,29.30
2022-11-06T23:32:33.818Z,27.40
2022-11-06T23:35:04.710Z,25.50
2022-11-06T23:37:33.802Z,28.20
2022-11-06T23:40:02.765Z,23.50
2022-11-06T23:42:31.565Z,24.20
2022-11-06T23:45:18.832Z,24.30
2022-11-06T23:47:48.261Z,26.10
2022-11-06T23:50:17.440Z,23.70
2022-11-06T23:52:46.325Z,23.20
2022-11-06T23:55:15.261Z,22.70
2022-11-06T23:57:44.133Z,28.30
